sensor_id;sensor_type;location;lat;lon;timestamp;pressure;altitude;pressure_sealevel;temperature;humidity
3428;BME280;1727;42.624;23.406;2023-07-30T00:02:28;94669.63;;;22.77;59.19
3428;BME280;1727;42.624;23.406;2023-07-30T00:04:55;94674.41;;;22.69;59.49
3428;BME280;1727;42.624;23.406;2023-07-30T00:07:22;94669.91;;;22.63;59.24
3428;BME280;1727;42.624;23.406;2023-07-30T00:09:50;94670.31;;;22.66;59.48
3428;BME280;1727;42.624;23.406;2023-07-30T00:12:17;94668.25;;;22.62;59.79
3428;BME280;1727;42.624;23.406;2023-07-30T00:14:44;94674.44;;;22.55;59.92
3428;BME280;1727;42.624;23.406;2023-07-30T00:17:10;94669.72;;;22.51;60.07
3428;BME280;1727;42.624;23.406;2023-07-30T00:19:37;94672.59;;;22.49;60.25
3428;BME280;1727;42.624;23.406;2023-07-30T00:22:05;94662.94;;;22.42;60.75
3428;BME280;1727;42.624;23.406;2023-07-30T00:24:32;94666.41;;;22.49;60.58
3428;BME280;1727;42.624;23.406;2023-07-30T00:27:00;94667.44;;;22.48;60.86
3428;BME280;1727;42.624;23.406;2023-07-30T00:29:26;94670.94;;;22.48;60.82
3428;BME280;1727;42.624;23.406;2023-07-30T00:31:53;94669.50;;;22.46;61.24
3428;BME280;1727;42.624;23.406;2023-07-30T00:34:20;94658.00;;;22.45;61.56
3428;BME280;1727;42.624;23.406;2023-07-30T00:36:47;94665.81;;;22.40;61.64
3428;BME280;1727;42.624;23.406;2023-07-30T00:39:14;94656.19;;;22.33;61.67
3428;BME280;1727;42.624;23.406;2023-07-30T00:41:40;94658.00;;;22.25;61.96
3428;BME280;1727;42.624;23.406;2023-07-30T00:44:09;94663.16;;;22.34;62.12
3428;BME280;1727;42.624;23.406;2023-07-30T00:46:35;94650.19;;;22.37;62.41
3428;BME280;1727;42.624;23.406;2023-07-30T00:49:02;94649.81;;;22.34;62.79
3428;BME280;1727;42.624;23.406;2023-07-30T00:51:31;94655.16;;;22.34;62.71
3428;BME280;1727;42.624;23.406;2023-07-30T00:53:58;94658.44;;;22.36;62.98
3428;BME280;1727;42.624;23.406;2023-07-30T00:56:26;94657.63;;;22.35;63.17
3428;BME280;1727;42.624;23.406;2023-07-30T00:58:53;94660.50;;;22.34;63.34
3428;BME280;1727;42.624;23.406;2023-07-30T01:01:22;94660.31;;;22.29;63.44
3428;BME280;1727;42.624;23.406;2023-07-30T01:03:50;94658.84;;;22.26;63.41
3428;BME280;1727;42.624;23.406;2023-07-30T01:06:17;94650.00;;;22.25;63.77
3428;BME280;1727;42.624;23.406;2023-07-30T01:08:44;94656.19;;;22.19;63.69
3428;BME280;1727;42.624;23.406;2023-07-30T01:11:11;94650.03;;;22.06;63.97
3428;BME280;1727;42.624;23.406;2023-07-30T01:13:39;94658.88;;;22.06;64.04
3428;BME280;1727;42.624;23.406;2023-07-30T01:16:06;94655.38;;;22.06;64.11
3428;BME280;1727;42.624;23.406;2023-07-30T01:18:34;94663.13;;;21.94;64.55
3428;BME280;1727;42.624;23.406;2023-07-30T01:21:02;94666.03;;;21.99;64.58
3428;BME280;1727;42.624;23.406;2023-07-30T01:23:29;94673.22;;;21.92;64.46
3428;BME280;1727;42.624;23.406;2023-07-30T01:26:02;94667.88;;;21.85;64.36
3428;BME280;1727;42.624;23.406;2023-07-30T01:28:36;94660.47;;;21.81;64.90
3428;BME280;1727;42.624;23.406;2023-07-30T01:31:04;94661.50;;;21.80;64.79
3428;BME280;1727;42.624;23.406;2023-07-30T01:33:32;94662.13;;;21.82;65.12
3428;BME280;1727;42.624;23.406;2023-07-30T01:35:59;94657.19;;;21.79;65.47
3428;BME280;1727;42.624;23.406;2023-07-30T01:38:29;94661.72;;;21.72;65.71
3428;BME280;1727;42.624;23.406;2023-07-30T01:40:56;94659.63;;;21.67;65.32
3428;BME280;1727;42.624;23.406;2023-07-30T01:43:25;94666.81;;;21.67;65.10
3428;BME280;1727;42.624;23.406;2023-07-30T01:45:52;94670.50;;;21.65;65.19
3428;BME280;1727;42.624;23.406;2023-07-30T01:48:19;94668.66;;;21.59;65.20
3428;BME280;1727;42.624;23.406;2023-07-30T01:50:46;94665.56;;;21.49;65.48
3428;BME280;1727;42.624;23.406;2023-07-30T01:53:14;94669.28;;;21.55;65.49
3428;BME280;1727;42.624;23.406;2023-07-30T01:55:42;94671.13;;;21.54;65.10
3428;BME280;1727;42.624;23.406;2023-07-30T01:58:13;94670.31;;;21.54;65.30
3428;BME280;1727;42.624;23.406;2023-07-30T02:00:39;94667.22;;;21.50;65.59
3428;BME280;1727;42.624;23.406;2023-07-30T02:03:06;94673.59;;;21.49;64.99
3428;BME280;1727;42.624;23.406;2023-07-30T02:05:33;94671.13;;;21.41;65.56
3428;BME280;1727;42.624;23.406;2023-07-30T02:08:00;94666.19;;;21.45;65.27
3428;BME280;1727;42.624;23.406;2023-07-30T02:10:27;94676.88;;;21.45;65.45
3428;BME280;1727;42.624;23.406;2023-07-30T02:12:55;94671.31;;;21.46;65.79
3428;BME280;1727;42.624;23.406;2023-07-30T02:15:22;94671.53;;;21.45;65.94
3428;BME280;1727;42.624;23.406;2023-07-30T02:17:49;94675.22;;;21.44;66.39
3428;BME280;1727;42.624;23.406;2023-07-30T02:20:15;94681.59;;;21.43;66.46
3428;BME280;1727;42.624;23.406;2023-07-30T02:22:42;94677.28;;;21.48;66.83
3428;BME280;1727;42.624;23.406;2023-07-30T02:25:09;94678.72;;;21.44;66.72
3428;BME280;1727;42.624;23.406;2023-07-30T02:27:36;94691.66;;;21.47;66.18
3428;BME280;1727;42.624;23.406;2023-07-30T02:30:06;94686.72;;;21.44;66.46
3428;BME280;1727;42.624;23.406;2023-07-30T02:32:33;94688.16;;;21.47;66.12
3428;BME280;1727;42.624;23.406;2023-07-30T02:34:59;94693.31;;;21.48;66.66
3428;BME280;1727;42.624;23.406;2023-07-30T02:37:26;94687.13;;;21.48;66.74
3428;BME280;1727;42.624;23.406;2023-07-30T02:39:53;94698.03;;;21.46;67.05
3428;BME280;1727;42.624;23.406;2023-07-30T02:42:20;94692.66;;;21.40;67.28
3428;BME280;1727;42.624;23.406;2023-07-30T02:44:46;94696.75;;;21.36;67.50
3428;BME280;1727;42.624;23.406;2023-07-30T02:47:15;94691.59;;;21.34;67.23
3428;BME280;1727;42.624;23.406;2023-07-30T02:49:41;94702.28;;;21.34;66.67
3428;BME280;1727;42.624;23.406;2023-07-30T02:52:08;94697.75;;;21.28;66.59
3428;BME280;1727;42.624;23.406;2023-07-30T02:54:35;94692.81;;;21.25;66.69
3428;BME280;1727;42.624;23.406;2023-07-30T02:57:02;94695.47;;;21.25;66.49
3428;BME280;1727;42.624;23.406;2023-07-30T02:59:29;94709.19;;;21.22;66.19
3428;BME280;1727;42.624;23.406;2023-07-30T03:01:55;94705.50;;;21.16;66.62
3428;BME280;1727;42.624;23.406;2023-07-30T03:04:26;94703.44;;;21.12;66.74
3428;BME280;1727;42.624;23.406;2023-07-30T03:06:52;94699.94;;;21.11;66.54
3428;BME280;1727;42.624;23.406;2023-07-30T03:09:19;94702.16;;;21.08;66.85
3428;BME280;1727;42.624;23.406;2023-07-30T03:11:46;94707.50;;;21.08;66.97
3428;BME280;1727;42.624;23.406;2023-07-30T03:14:13;94708.28;;;21.01;67.66
3428;BME280;1727;42.624;23.406;2023-07-30T03:16:40;94715.00;;;20.84;68.62
3428;BME280;1727;42.624;23.406;2023-07-30T03:19:08;94707.00;;;20.84;68.62
3428;BME280;1727;42.624;23.406;2023-07-30T03:21:36;94711.50;;;20.84;69.14
3428;BME280;1727;42.624;23.406;2023-07-30T03:24:03;94702.91;;;20.88;68.84
3428;BME280;1727;42.624;23.406;2023-07-30T03:26:30;94707.81;;;20.85;68.81
3428;BME280;1727;42.624;23.406;2023-07-30T03:28:57;94705.41;;;20.96;67.94
3428;BME280;1727;42.624;23.406;2023-07-30T03:31:24;94708.69;;;20.98;68.52
3428;BME280;1727;42.624;23.406;2023-07-30T03:33:51;94703.38;;;21.05;68.68
3428;BME280;1727;42.624;23.406;2023-07-30T03:36:17;94698.44;;;21.02;69.09
3428;BME280;1727;42.624;23.406;2023-07-30T03:38:46;94703.78;;;21.02;69.32
3428;BME280;1727;42.624;23.406;2023-07-30T03:41:12;94707.44;;;20.94;70.04
3428;BME280;1727;42.624;23.406;2023-07-30T03:43:39;94702.72;;;20.90;70.45
3428;BME280;1727;42.624;23.406;2023-07-30T03:46:06;94701.19;;;20.81;70.45
3428;BME280;1727;42.624;23.406;2023-07-30T03:48:33;94697.28;;;20.77;71.03
3428;BME280;1727;42.624;23.406;2023-07-30T03:51:00;94700.38;;;20.80;71.13
3428;BME280;1727;42.624;23.406;2023-07-30T03:53:28;94704.66;;;20.75;71.42
3428;BME280;1727;42.624;23.406;2023-07-30T03:55:56;94709.16;;;20.74;71.53
3428;BME280;1727;42.624;23.406;2023-07-30T03:58:23;94708.94;;;20.69;71.88
3428;BME280;1727;42.624;23.406;2023-07-30T04:00:49;94715.13;;;21.11;70.62
3428;BME280;1727;42.624;23.406;2023-07-30T04:03:16;94716.53;;;21.61;69.02
3428;BME280;1727;42.624;23.406;2023-07-30T04:05:43;94713.75;;;22.09;66.86
3428;BME280;1727;42.624;23.406;2023-07-30T04:08:10;94723.81;;;22.46;65.38
3428;BME280;1727;42.624;23.406;2023-07-30T04:10:37;94724.41;;;22.81;63.76
3428;BME280;1727;42.624;23.406;2023-07-30T04:13:05;94716.66;;;23.25;62.29
3428;BME280;1727;42.624;23.406;2023-07-30T04:15:33;94722.13;;;23.49;61.51
3428;BME280;1727;42.624;23.406;2023-07-30T04:18:00;94721.78;;;23.77;60.59
3428;BME280;1727;42.624;23.406;2023-07-30T04:20:27;94723.31;;;24.30;59.17
3428;BME280;1727;42.624;23.406;2023-07-30T04:22:53;94721.09;;;24.70;57.76
3428;BME280;1727;42.624;23.406;2023-07-30T04:25:20;94728.00;;;25.02;56.66
3428;BME280;1727;42.624;23.406;2023-07-30T04:27:47;94723.63;;;25.26;55.48
3428;BME280;1727;42.624;23.406;2023-07-30T04:30:15;94727.72;;;25.47;54.95
3428;BME280;1727;42.624;23.406;2023-07-30T04:32:42;94726.34;;;25.75;54.29
3428;BME280;1727;42.624;23.406;2023-07-30T04:35:09;94729.44;;;25.90;53.81
3428;BME280;1727;42.624;23.406;2023-07-30T04:37:35;94722.31;;;25.96;53.21
3428;BME280;1727;42.624;23.406;2023-07-30T04:40:03;94732.06;;;26.08;52.73
3428;BME280;1727;42.624;23.406;2023-07-30T04:42:30;94726.72;;;26.20;52.25
3428;BME280;1727;42.624;23.406;2023-07-30T04:44:56;94730.41;;;26.49;51.45
3428;BME280;1727;42.624;23.406;2023-07-30T04:47:26;94732.66;;;26.64;50.95
3428;BME280;1727;42.624;23.406;2023-07-30T04:49:53;94739.44;;;26.78;50.31
3428;BME280;1727;42.624;23.406;2023-07-30T04:52:20;94727.75;;;27.07;50.30
3428;BME280;1727;42.624;23.406;2023-07-30T04:54:47;94722.91;;;27.33;49.24
3428;BME280;1727;42.624;23.406;2023-07-30T04:57:13;94725.13;;;27.36;49.21
3428;BME280;1727;42.624;23.406;2023-07-30T04:59:40;94723.25;;;27.48;48.02
3428;BME280;1727;42.624;23.406;2023-07-30T05:02:07;94729.63;;;27.70;48.54
3428;BME280;1727;42.624;23.406;2023-07-30T05:04:35;94731.16;;;27.66;46.77
3428;BME280;1727;42.624;23.406;2023-07-30T05:07:02;94732.84;;;27.44;46.80
3428;BME280;1727;42.624;23.406;2023-07-30T05:09:29;94735.00;;;27.30;47.67
3428;BME280;1727;42.624;23.406;2023-07-30T05:11:56;94728.81;;;27.06;48.15
3428;BME280;1727;42.624;23.406;2023-07-30T05:14:23;94729.63;;;27.19;48.04
3428;BME280;1727;42.624;23.406;2023-07-30T05:16:50;94725.34;;;27.46;48.02
3428;BME280;1727;42.624;23.406;2023-07-30T05:19:17;94732.41;;;27.75;47.04
3428;BME280;1727;42.624;23.406;2023-07-30T05:21:45;94724.97;;;27.94;47.11
3428;BME280;1727;42.624;23.406;2023-07-30T05:24:12;94725.81;;;28.57;45.91
3428;BME280;1727;42.624;23.406;2023-07-30T05:26:38;94732.38;;;28.94;47.46
3428;BME280;1727;42.624;23.406;2023-07-30T05:29:05;94722.97;;;29.19;46.03
3428;BME280;1727;42.624;23.406;2023-07-30T05:31:32;94730.94;;;29.47;44.92
3428;BME280;1727;42.624;23.406;2023-07-30T05:33:59;94725.56;;;29.30;43.69
3428;BME280;1727;42.624;23.406;2023-07-30T05:36:26;94727.09;;;29.05;44.78
3428;BME280;1727;42.624;23.406;2023-07-30T05:38:54;94740.47;;;29.33;44.54
3428;BME280;1727;42.624;23.406;2023-07-30T05:41:21;94734.16;;;28.72;43.74
3428;BME280;1727;42.624;23.406;2023-07-30T05:43:47;94738.03;;;28.93;43.74
3428;BME280;1727;42.624;23.406;2023-07-30T05:46:14;94737.06;;;29.21;45.02
3428;BME280;1727;42.624;23.406;2023-07-30T05:48:41;94737.97;;;29.48;42.82
3428;BME280;1727;42.624;23.406;2023-07-30T05:51:08;94743.13;;;29.72;45.10
3428;BME280;1727;42.624;23.406;2023-07-30T05:53:35;94742.66;;;30.02;42.71
3428;BME280;1727;42.624;23.406;2023-07-30T05:56:03;94740.16;;;30.44;42.01
3428;BME280;1727;42.624;23.406;2023-07-30T05:58:30;94745.00;;;30.42;41.22
3428;BME280;1727;42.624;23.406;2023-07-30T06:00:57;94738.81;;;29.71;42.38
3428;BME280;1727;42.624;23.406;2023-07-30T06:03:26;94743.84;;;29.84;42.64
3428;BME280;1727;42.624;23.406;2023-07-30T06:05:53;94743.84;;;29.84;42.56
3428;BME280;1727;42.624;23.406;2023-07-30T06:08:19;94743.94;;;29.94;42.74
3428;BME280;1727;42.624;23.406;2023-07-30T06:10:46;94744.25;;;30.19;42.12
3428;BME280;1727;42.624;23.406;2023-07-30T06:13:14;94744.19;;;29.92;41.76
3428;BME280;1727;42.624;23.406;2023-07-30T06:15:41;94742.25;;;29.88;42.32
3428;BME280;1727;42.624;23.406;2023-07-30T06:18:11;94740.47;;;30.20;42.36
3428;BME280;1727;42.624;23.406;2023-07-30T06:20:38;94743.22;;;30.26;41.06
3428;BME280;1727;42.624;23.406;2023-07-30T06:23:04;94731.47;;;30.42;42.17
3428;BME280;1727;42.624;23.406;2023-07-30T06:25:31;94736.97;;;30.84;41.03
3428;BME280;1727;42.624;23.406;2023-07-30T06:27:58;94727.97;;;30.73;39.38
3428;BME280;1727;42.624;23.406;2023-07-30T06:30:27;94733.50;;;30.94;40.08
3428;BME280;1727;42.624;23.406;2023-07-30T06:32:54;94724.50;;;31.20;39.37
3428;BME280;1727;42.624;23.406;2023-07-30T06:35:20;94728.94;;;31.36;39.46
3428;BME280;1727;42.624;23.406;2023-07-30T06:37:47;94728.09;;;31.31;38.58
3428;BME280;1727;42.624;23.406;2023-07-30T06:40:14;94715.84;;;31.23;38.47
3428;BME280;1727;42.624;23.406;2023-07-30T06:42:42;94721.06;;;31.35;39.07
3428;BME280;1727;42.624;23.406;2023-07-30T06:45:09;94716.72;;;31.39;38.70
3428;BME280;1727;42.624;23.406;2023-07-30T06:47:37;94714.84;;;31.39;38.63
3428;BME280;1727;42.624;23.406;2023-07-30T06:50:05;94713.66;;;31.72;38.72
3428;BME280;1727;42.624;23.406;2023-07-30T06:52:33;94708.28;;;31.88;37.20
3428;BME280;1727;42.624;23.406;2023-07-30T06:55:00;94699.13;;;31.47;38.02
3428;BME280;1727;42.624;23.406;2023-07-30T06:57:28;94707.88;;;31.59;38.88
3428;BME280;1727;42.624;23.406;2023-07-30T06:59:54;94704.41;;;31.73;38.51
3428;BME280;1727;42.624;23.406;2023-07-30T07:02:25;94706.88;;;31.75;37.44
3428;BME280;1727;42.624;23.406;2023-07-30T07:04:54;94692.78;;;31.21;37.97
3428;BME280;1727;42.624;23.406;2023-07-30T07:07:23;94698.31;;;31.41;38.35
3428;BME280;1727;42.624;23.406;2023-07-30T07:09:50;94680.34;;;30.88;38.75
3428;BME280;1727;42.624;23.406;2023-07-30T07:12:17;94691.22;;;30.93;38.53
3428;BME280;1727;42.624;23.406;2023-07-30T07:14:44;94687.59;;;30.72;39.70
3428;BME280;1727;42.624;23.406;2023-07-30T07:17:13;94685.41;;;30.37;40.71
3428;BME280;1727;42.624;23.406;2023-07-30T07:19:40;94680.00;;;30.74;41.05
3428;BME280;1727;42.624;23.406;2023-07-30T07:22:08;94684.34;;;31.17;39.73
3428;BME280;1727;42.624;23.406;2023-07-30T07:24:35;94674.78;;;31.62;40.72
3428;BME280;1727;42.624;23.406;2023-07-30T07:27:02;94676.97;;;31.70;37.72
3428;BME280;1727;42.624;23.406;2023-07-30T07:29:32;94668.59;;;31.14;37.09
3428;BME280;1727;42.624;23.406;2023-07-30T07:31:58;94671.88;;;31.16;38.68
3428;BME280;1727;42.624;23.406;2023-07-30T07:34:25;94668.19;;;31.42;38.33
3428;BME280;1727;42.624;23.406;2023-07-30T07:36:57;94669.44;;;31.20;37.90
3428;BME280;1727;42.624;23.406;2023-07-30T07:39:25;94660.34;;;31.46;38.74
3428;BME280;1727;42.624;23.406;2023-07-30T07:41:52;94660.66;;;31.55;37.24
3428;BME280;1727;42.624;23.406;2023-07-30T07:44:19;94658.78;;;31.60;38.37
3428;BME280;1727;42.624;23.406;2023-07-30T07:46:47;94656.44;;;31.89;39.17
3428;BME280;1727;42.624;23.406;2023-07-30T07:49:13;94659.72;;;32.07;37.20
3428;BME280;1727;42.624;23.406;2023-07-30T07:51:42;94657.53;;;32.03;38.65
3428;BME280;1727;42.624;23.406;2023-07-30T07:54:09;94653.78;;;32.15;38.77
3428;BME280;1727;42.624;23.406;2023-07-30T07:56:37;94646.72;;;32.29;39.02
3428;BME280;1727;42.624;23.406;2023-07-30T07:59:06;94653.50;;;32.37;38.07
3428;BME280;1727;42.624;23.406;2023-07-30T08:01:33;94643.47;;;32.32;37.38
3428;BME280;1727;42.624;23.406;2023-07-30T08:04:01;94645.66;;;32.30;38.28
3428;BME280;1727;42.624;23.406;2023-07-30T08:06:28;94638.03;;;32.27;37.81
3428;BME280;1727;42.624;23.406;2023-07-30T08:08:57;94645.97;;;31.46;38.47
3428;BME280;1727;42.624;23.406;2023-07-30T08:11:24;94639.47;;;31.47;39.63
3428;BME280;1727;42.624;23.406;2023-07-30T08:13:54;94639.25;;;31.63;38.53
3428;BME280;1727;42.624;23.406;2023-07-30T08:16:20;94638.53;;;31.88;39.83
3428;BME280;1727;42.624;23.406;2023-07-30T08:18:49;94641.47;;;31.77;37.68
3428;BME280;1727;42.624;23.406;2023-07-30T08:21:16;94634.72;;;32.04;39.28
3428;BME280;1727;42.624;23.406;2023-07-30T08:23:43;94633.41;;;32.22;38.87
3428;BME280;1727;42.624;23.406;2023-07-30T08:26:09;94632.59;;;32.37;37.84
3428;BME280;1727;42.624;23.406;2023-07-30T08:28:36;94630.16;;;32.46;37.96
3428;BME280;1727;42.624;23.406;2023-07-30T08:31:05;94621.72;;;32.17;35.74
3428;BME280;1727;42.624;23.406;2023-07-30T08:33:33;94622.84;;;32.26;37.66
3428;BME280;1727;42.624;23.406;2023-07-30T08:36:00;94613.06;;;32.45;35.84
3428;BME280;1727;42.624;23.406;2023-07-30T08:38:28;94614.69;;;32.41;35.21
3428;BME280;1727;42.624;23.406;2023-07-30T08:40:55;94617.09;;;31.92;36.86
3428;BME280;1727;42.624;23.406;2023-07-30T08:43:25;94615.47;;;32.16;36.36
3428;BME280;1727;42.624;23.406;2023-07-30T08:45:54;94607.84;;;32.08;35.83
3428;BME280;1727;42.624;23.406;2023-07-30T08:48:25;94608.94;;;31.92;34.71
3428;BME280;1727;42.624;23.406;2023-07-30T08:50:59;94604.31;;;31.87;34.71
3428;BME280;1727;42.624;23.406;2023-07-30T08:53:26;94604.34;;;32.18;34.41
3428;BME280;1727;42.624;23.406;2023-07-30T08:55:54;94601.91;;;32.31;34.56
3428;BME280;1727;42.624;23.406;2023-07-30T08:58:22;94601.06;;;32.61;35.85
3428;BME280;1727;42.624;23.406;2023-07-30T09:00:49;94602.69;;;32.83;34.81
3428;BME280;1727;42.624;23.406;2023-07-30T09:03:18;94598.56;;;33.01;32.69
3428;BME280;1727;42.624;23.406;2023-07-30T09:05:52;94597.41;;;33.17;33.14
3428;BME280;1727;42.624;23.406;2023-07-30T09:08:19;94600.75;;;32.88;31.74
3428;BME280;1727;42.624;23.406;2023-07-30T09:10:46;94592.63;;;32.73;31.83
3428;BME280;1727;42.624;23.406;2023-07-30T09:13:20;94588.53;;;32.76;34.29
3428;BME280;1727;42.624;23.406;2023-07-30T09:15:48;94585.28;;;32.84;33.57
3428;BME280;1727;42.624;23.406;2023-07-30T09:18:17;94585.78;;;32.96;34.01
3428;BME280;1727;42.624;23.406;2023-07-30T09:20:44;94583.97;;;32.51;32.62
3428;BME280;1727;42.624;23.406;2023-07-30T09:23:12;94575.56;;;32.42;32.34
3428;BME280;1727;42.624;23.406;2023-07-30T09:25:39;94585.06;;;32.45;32.83
3428;BME280;1727;42.624;23.406;2023-07-30T09:28:06;94572.84;;;32.37;31.03
3428;BME280;1727;42.624;23.406;2023-07-30T09:30:33;94579.63;;;32.19;32.40
3428;BME280;1727;42.624;23.406;2023-07-30T09:33:00;94578.28;;;32.32;32.84
3428;BME280;1727;42.624;23.406;2023-07-30T09:35:27;94571.22;;;32.36;31.97
3428;BME280;1727;42.624;23.406;2023-07-30T09:37:58;94575.56;;;32.12;32.22
3428;BME280;1727;42.624;23.406;2023-07-30T09:40:33;94572.84;;;32.42;32.42
3428;BME280;1727;42.624;23.406;2023-07-30T09:43:04;94558.38;;;32.72;32.46
3428;BME280;1727;42.624;23.406;2023-07-30T09:45:34;94557.56;;;32.77;31.14
3428;BME280;1727;42.624;23.406;2023-07-30T09:48:04;94550.31;;;32.16;32.14
3428;BME280;1727;42.624;23.406;2023-07-30T09:50:31;94546.78;;;32.31;31.65
3428;BME280;1727;42.624;23.406;2023-07-30T09:52:58;94548.94;;;32.44;31.87
3428;BME280;1727;42.624;23.406;2023-07-30T09:55:27;94551.38;;;32.51;31.41
3428;BME280;1727;42.624;23.406;2023-07-30T09:57:55;94553.56;;;32.49;31.39
3428;BME280;1727;42.624;23.406;2023-07-30T10:00:22;94551.88;;;32.63;32.06
3428;BME280;1727;42.624;23.406;2023-07-30T10:02:50;94550.25;;;32.72;31.56
3428;BME280;1727;42.624;23.406;2023-07-30T10:05:18;94547.50;;;32.77;30.65
3428;BME280;1727;42.624;23.406;2023-07-30T10:07:49;94552.41;;;32.75;29.69
3428;BME280;1727;42.624;23.406;2023-07-30T10:10:18;94541.84;;;32.53;29.89
3428;BME280;1727;42.624;23.406;2023-07-30T10:12:47;94543.44;;;32.64;30.26
3428;BME280;1727;42.624;23.406;2023-07-30T10:15:24;94539.09;;;32.74;30.34
3428;BME280;1727;42.624;23.406;2023-07-30T10:17:51;94533.13;;;32.72;30.18
3428;BME280;1727;42.624;23.406;2023-07-30T10:20:23;94527.66;;;32.66;30.86
3428;BME280;1727;42.624;23.406;2023-07-30T10:22:54;94531.78;;;32.69;30.91
3428;BME280;1727;42.624;23.406;2023-07-30T10:25:28;94522.78;;;32.63;31.15
3428;BME280;1727;42.624;23.406;2023-07-30T10:27:55;94525.06;;;32.26;30.27
3428;BME280;1727;42.624;23.406;2023-07-30T10:30:30;94512.28;;;32.06;31.26
3428;BME280;1727;42.624;23.406;2023-07-30T10:32:59;94514.22;;;31.95;31.17
3428;BME280;1727;42.624;23.406;2023-07-30T10:35:35;94506.06;;;31.95;30.99
3428;BME280;1727;42.624;23.406;2023-07-30T10:38:15;94508.78;;;31.80;31.26
3428;BME280;1727;42.624;23.406;2023-07-30T10:40:59;94507.44;;;31.83;31.92
3428;BME280;1727;42.624;23.406;2023-07-30T10:43:27;94504.72;;;31.83;31.70
3428;BME280;1727;42.624;23.406;2023-07-30T10:45:59;94500.09;;;31.73;32.67
3428;BME280;1727;42.624;23.406;2023-07-30T10:48:31;94498.47;;;31.72;32.50
3428;BME280;1727;42.624;23.406;2023-07-30T10:51:00;94492.50;;;31.85;32.07
3428;BME280;1727;42.624;23.406;2023-07-30T10:53:31;94485.97;;;32.01;31.98
3428;BME280;1727;42.624;23.406;2023-07-30T10:55:59;94475.91;;;32.12;33.14
3428;BME280;1727;42.624;23.406;2023-07-30T10:58:29;94487.03;;;32.21;31.74
3428;BME280;1727;42.624;23.406;2023-07-30T11:01:01;94477.78;;;32.37;31.84
3428;BME280;1727;42.624;23.406;2023-07-30T11:03:29;94465.81;;;32.48;32.12
3428;BME280;1727;42.624;23.406;2023-07-30T11:05:57;94466.88;;;32.52;34.10
3428;BME280;1727;42.624;23.406;2023-07-30T11:08:35;94470.19;;;32.29;32.15
3428;BME280;1727;42.624;23.406;2023-07-30T11:11:02;94464.72;;;32.44;31.54
3428;BME280;1727;42.624;23.406;2023-07-30T11:13:29;94459.28;;;32.49;31.81
3428;BME280;1727;42.624;23.406;2023-07-30T11:15:58;94458.13;;;32.65;32.10
3428;BME280;1727;42.624;23.406;2023-07-30T11:18:31;94450.28;;;32.54;30.30
3428;BME280;1727;42.624;23.406;2023-07-30T11:21:02;94448.34;;;32.64;32.01
3428;BME280;1727;42.624;23.406;2023-07-30T11:23:29;94447.84;;;32.52;32.15
3428;BME280;1727;42.624;23.406;2023-07-30T11:25:56;94443.75;;;32.55;31.76
3428;BME280;1727;42.624;23.406;2023-07-30T11:28:30;94430.50;;;32.48;32.91
3428;BME280;1727;42.624;23.406;2023-07-30T11:31:03;94447.88;;;32.47;32.15
3428;BME280;1727;42.624;23.406;2023-07-30T11:33:31;94431.00;;;32.55;31.65
3428;BME280;1727;42.624;23.406;2023-07-30T11:36:02;94442.41;;;32.57;31.48
3428;BME280;1727;42.624;23.406;2023-07-30T11:38:30;94421.69;;;32.72;32.24
3428;BME280;1727;42.624;23.406;2023-07-30T11:41:01;94441.25;;;32.79;31.52
3428;BME280;1727;42.624;23.406;2023-07-30T11:43:28;94434.16;;;32.83;31.09
3428;BME280;1727;42.624;23.406;2023-07-30T11:46:10;94419.53;;;32.63;31.32
3428;BME280;1727;42.624;23.406;2023-07-30T11:48:41;94423.22;;;32.23;31.83
3428;BME280;1727;42.624;23.406;2023-07-30T11:51:19;94414.25;;;32.23;32.05
3428;BME280;1727;42.624;23.406;2023-07-30T11:53:47;94416.44;;;32.21;31.97
3428;BME280;1727;42.624;23.406;2023-07-30T11:56:23;94409.88;;;32.37;32.39
3428;BME280;1727;42.624;23.406;2023-07-30T11:58:53;94395.97;;;32.49;32.68
3428;BME280;1727;42.624;23.406;2023-07-30T12:01:23;94398.13;;;32.52;32.69
3428;BME280;1727;42.624;23.406;2023-07-30T12:03:53;94384.81;;;32.55;32.60
3428;BME280;1727;42.624;23.406;2023-07-30T12:06:20;94387.19;;;32.67;33.04
3428;BME280;1727;42.624;23.406;2023-07-30T12:08:48;94387.06;;;32.43;33.01
3428;BME280;1727;42.624;23.406;2023-07-30T12:11:17;94386.50;;;32.46;32.65
3428;BME280;1727;42.624;23.406;2023-07-30T12:13:45;94385.06;;;32.59;31.91
3428;BME280;1727;42.624;23.406;2023-07-30T12:16:13;94388.56;;;32.70;32.22
3428;BME280;1727;42.624;23.406;2023-07-30T12:18:41;94377.59;;;32.85;32.01
3428;BME280;1727;42.624;23.406;2023-07-30T12:21:08;94370.75;;;32.92;31.91
3428;BME280;1727;42.624;23.406;2023-07-30T12:23:36;94368.28;;;33.01;31.26
3428;BME280;1727;42.624;23.406;2023-07-30T12:26:03;94366.94;;;32.99;31.68
3428;BME280;1727;42.624;23.406;2023-07-30T12:28:31;94358.53;;;32.90;31.75
3428;BME280;1727;42.624;23.406;2023-07-30T12:30:58;94350.28;;;33.05;31.79
3428;BME280;1727;42.624;23.406;2023-07-30T12:33:25;94343.06;;;32.85;30.61
3428;BME280;1727;42.624;23.406;2023-07-30T12:35:53;94349.97;;;32.62;30.22
3428;BME280;1727;42.624;23.406;2023-07-30T12:38:20;94349.03;;;32.43;30.96
3428;BME280;1727;42.624;23.406;2023-07-30T12:40:47;94347.94;;;32.44;31.12
3428;BME280;1727;42.624;23.406;2023-07-30T12:43:13;94338.59;;;32.60;31.28
3428;BME280;1727;42.624;23.406;2023-07-30T12:45:40;94341.50;;;32.79;31.42
3428;BME280;1727;42.624;23.406;2023-07-30T12:48:07;94341.69;;;32.88;30.97
3428;BME280;1727;42.624;23.406;2023-07-30T12:50:34;94337.03;;;32.93;32.00
3428;BME280;1727;42.624;23.406;2023-07-30T12:53:02;94332.78;;;32.82;31.79
3428;BME280;1727;42.624;23.406;2023-07-30T12:55:29;94320.25;;;32.86;31.78
3428;BME280;1727;42.624;23.406;2023-07-30T12:57:56;94323.03;;;32.71;30.04
3428;BME280;1727;42.624;23.406;2023-07-30T13:00:22;94321.66;;;32.79;30.55
3428;BME280;1727;42.624;23.406;2023-07-30T13:02:52;94316.47;;;32.77;30.75
3428;BME280;1727;42.624;23.406;2023-07-30T13:05:21;94315.91;;;32.85;31.42
3428;BME280;1727;42.624;23.406;2023-07-30T13:07:47;94313.50;;;32.79;32.31
3428;BME280;1727;42.624;23.406;2023-07-30T13:10:16;94309.41;;;32.76;31.85
3428;BME280;1727;42.624;23.406;2023-07-30T13:12:43;94305.94;;;32.71;31.63
3428;BME280;1727;42.624;23.406;2023-07-30T13:15:09;94309.22;;;32.68;32.28